createdAt,value
2022-11-24T09:25:06.079Z,1.08
2022-11-24T09:27:51.128Z,1.08
2022-11-24T09:30:36.107Z,1.16
2022-11-24T09:33:21.022Z,1.13
2022-11-24T09:36:06.049Z,1.14
2022-11-24T09:38:51.313Z,1.16
2022-11-24T09:41:45.375Z,1.13
2022-11-24T09:44:51.929Z,1.12
2022-11-24T09:47:36.470Z,1.17
2022-11-24T09:50:25.007Z,1.29
2022-11-24T09:53:09.675Z,1.47
2022-11-24T09:56:12.610Z,1.66
2022-11-24T09:59:02.356Z,1.88
2022-11-24T10:01:48.482Z,2.02
2022-11-24T10:04:41.411Z,2.10
2022-11-24T10:07:28.734Z,2.00
2022-11-24T10:10:25.042Z,1.76
2022-11-24T10:13:34.128Z,1.66
2022-11-24T10:16:28.167Z,1.63
2022-11-24T10:19:36.901Z,1.66
2022-11-24T10:22:27.733Z,1.77
2022-11-24T10:25:13.115Z,1.82
2022-11-24T10:28:02.959Z,1.88
2022-11-24T10:30:49.211Z,1.95
2022-11-24T10:33:35.278Z,1.99
2022-11-24T10:36:46.410Z,1.98
2022-11-24T10:39:59.683Z,2.03
2022-11-24T10:42:48.134Z,1.97
2022-11-24T10:45:33.000Z,1.99
2022-11-24T10:48:25.280Z,2.00
2022-11-24T10:51:40.189Z,2.04
2022-11-24T10:54:24.939Z,2.04
2022-11-24T10:57:26.911Z,2.01
2022-11-24T11:00:17.764Z,1.96
2022-11-24T11:03:21.182Z,1.90
2022-11-24T11:06:12.921Z,1.83
2022-11-24T11:09:06.658Z,1.78
2022-11-24T11:11:53.240Z,1.82
2022-11-24T11:14:38.274Z,1.88
2022-11-24T11:17:29.312Z,1.91
2022-11-24T11:20:21.892Z,1.96
2022-11-24T11:23:42.247Z,2.00
2022-11-24T11:26:36.714Z,2.04
2022-11-24T11:35:33.149Z,2.03
2022-11-24T11:38:18.130Z,1.98
2022-11-24T11:41:05.103Z,1.98
2022-11-24T11:44:00.178Z,2.01
2022-11-24T11:46:46.064Z,2.02
2022-11-24T11:49:30.871Z,2.01
2022-11-24T11:52:37.654Z,1.98
2022-11-24T11:55:58.215Z,1.94
2022-11-24T11:58:51.831Z,1.90
2022-11-24T12:01:58.674Z,1.85
2022-11-24T12:04:56.050Z,1.83
2022-11-24T12:07:53.598Z,1.88
2022-11-24T12:11:04.696Z,1.84
2022-11-24T12:14:11.115Z,1.77
2022-11-24T12:16:58.966Z,1.74
2022-11-24T12:20:07.285Z,1.63
2022-11-24T12:22:56.996Z,1.60
2022-11-24T12:25:50.262Z,1.54
2022-11-24T12:29:05.330Z,1.53
2022-11-24T12:31:53.046Z,1.49
2022-11-24T12:34:37.858Z,1.49
2022-11-24T12:37:32.488Z,1.52
2022-11-24T12:40:31.943Z,1.54
2022-11-24T12:43:36.183Z,1.56
2022-11-24T12:46:49.077Z,1.56
2022-11-24T12:49:49.358Z,1.52
2022-11-24T12:52:43.324Z,1.52
2022-11-24T12:55:31.757Z,1.49
2022-11-24T12:58:39.537Z,1.45
2022-11-24T13:01:24.193Z,1.42
2022-11-24T13:04:41.522Z,1.40
2022-11-24T13:07:57.462Z,1.36
2022-11-24T13:10:58.219Z,1.32
2022-11-24T13:13:56.532Z,1.30
2022-11-24T13:17:28.197Z,1.25
2022-11-24T13:20:25.579Z,1.16
2022-11-24T13:23:28.665Z,1.12
2022-11-24T13:26:27.178Z,1.06
2022-11-24T13:29:25.490Z,0.96
2022-11-24T13:32:19.412Z,0.92
2022-11-24T13:35:13.876Z,0.88
2022-11-24T13:37:59.008Z,0.86
2022-11-24T13:40:59.709Z,0.86
2022-11-24T13:44:14.304Z,0.83
2022-11-24T13:47:06.907Z,0.81
2022-11-24T13:49:51.487Z,0.79
2022-11-24T13:52:39.794Z,0.76
2022-11-24T13:55:29.238Z,0.71
2022-11-24T13:58:14.056Z,0.67
2022-11-24T14:01:05.207Z,0.63
2022-11-24T14:04:29.952Z,0.60
2022-11-24T14:07:09.154Z,0.58
2022-11-24T14:10:18.461Z,0.55
2022-11-24T14:13:20.552Z,0.54
2022-11-24T14:16:14.271Z,0.55
2022-11-24T14:19:09.474Z,0.52
2022-11-24T14:21:54.714Z,0.51
2022-11-24T14:24:41.595Z,0.47
2022-11-24T14:27:36.676Z,0.46
2022-11-24T14:30:24.303Z,0.45
2022-11-24T14:33:11.523Z,0.46
2022-11-24T14:35:56.422Z,0.44
2022-11-24T14:38:42.010Z,0.43
2022-11-24T14:41:27.730Z,0.43
2022-11-24T14:44:41.576Z,0.43
2022-11-24T14:47:30.951Z,0.44
2022-11-24T14:50:21.418Z,0.43
2022-11-24T14:53:13.170Z,0.45
2022-11-24T14:56:24.855Z,0.42
2022-11-24T14:59:22.590Z,0.42
2022-11-24T15:02:25.880Z,0.44
2022-11-24T15:05:11.119Z,0.45
2022-11-24T15:08:02.126Z,0.46
2022-11-24T15:10:47.119Z,0.44
2022-11-24T15:13:37.689Z,0.43
2022-11-24T15:16:25.473Z,0.43
2022-11-24T15:19:15.784Z,0.42
2022-11-24T15:22:00.831Z,0.42
2022-11-24T15:24:52.957Z,0.41
2022-11-24T15:27:38.152Z,0.39
2022-11-24T15:30:22.897Z,0.40
2022-11-24T15:33:16.247Z,0.40
2022-11-24T15:36:01.172Z,0.40
2022-11-24T15:38:45.997Z,0.41
2022-11-24T15:41:33.218Z,0.40
2022-11-24T15:44:18.039Z,0.41
2022-11-24T15:47:03.087Z,0.42
2022-11-24T15:49:47.596Z,0.40
2022-11-24T15:52:31.922Z,0.40
2022-11-24T15:55:19.226Z,0.40
2022-11-24T15:58:03.687Z,0.40
2022-11-24T16:00:50.206Z,0.37
2022-11-24T16:03:50.153Z,0.35
2022-11-24T16:06:38.559Z,0.35
2022-11-24T16:09:23.431Z,0.33
2022-11-24T16:12:09.026Z,0.34
2022-11-24T16:14:54.154Z,0.36
2022-11-24T16:17:38.777Z,0.37
2022-11-24T16:20:23.749Z,0.35
2022-11-24T16:23:08.494Z,0.33
2022-11-24T16:25:53.044Z,0.32
2022-11-24T16:28:37.896Z,0.32
2022-11-24T16:31:23.543Z,0.33
2022-11-24T16:34:08.330Z,0.29
2022-11-24T16:36:53.243Z,0.32
2022-11-24T16:39:37.859Z,0.31
2022-11-24T16:42:22.149Z,0.30
2022-11-24T16:45:10.305Z,0.30
2022-11-24T16:47:55.158Z,0.31
2022-11-24T16:50:39.607Z,0.31
2022-11-24T16:53:24.241Z,0.31
2022-11-24T16:56:09.722Z,0.31
2022-11-24T16:58:55.256Z,0.29
2022-11-24T17:01:40.548Z,0.30
2022-11-24T17:04:25.293Z,0.28
2022-11-24T17:07:10.247Z,0.27
2022-11-24T17:09:55.317Z,0.29
2022-11-24T17:12:40.321Z,0.29
2022-11-24T17:15:33.517Z,0.29
2022-11-24T17:18:25.203Z,0.28
2022-11-24T17:21:16.358Z,0.30
2022-11-24T17:24:08.150Z,0.30
2022-11-24T17:26:53.060Z,0.29
2022-11-24T17:29:37.596Z,0.29
2022-11-24T17:32:22.316Z,0.27
2022-11-24T17:35:07.817Z,0.28
2022-11-24T17:37:52.571Z,0.27
2022-11-24T17:40:37.625Z,0.27
2022-11-24T17:43:22.367Z,0.28
2022-11-24T17:46:07.533Z,0.27
2022-11-24T17:48:52.774Z,0.28
2022-11-24T17:51:37.459Z,0.26
2022-11-24T17:54:46.021Z,0.24
2022-11-24T17:57:26.883Z,0.25
2022-11-24T18:00:11.993Z,0.24
2022-11-24T18:03:00.665Z,0.22
2022-11-24T18:05:45.142Z,0.21
2022-11-24T18:08:32.285Z,0.21
2022-11-24T18:11:21.899Z,0.22
2022-11-24T18:14:09.840Z,0.21
2022-11-24T18:16:54.763Z,0.21
2022-11-24T18:19:39.833Z,0.21
2022-11-24T18:22:50.072Z,0.20
2022-11-24T18:25:29.028Z,0.20
2022-11-24T18:28:13.528Z,0.23
2022-11-24T18:31:06.252Z,0.21
2022-11-24T18:33:51.032Z,0.21
2022-11-24T18:36:36.071Z,0.20
2022-11-24T18:39:20.585Z,0.21
2022-11-24T18:42:05.761Z,0.18
2022-11-24T18:44:54.027Z,0.19
2022-11-24T18:47:39.526Z,0.20
2022-11-24T18:50:24.251Z,0.21
2022-11-24T18:53:09.028Z,0.20
2022-11-24T18:56:04.252Z,0.19
2022-11-24T18:58:52.694Z,0.19
2022-11-24T19:01:37.919Z,0.20
2022-11-24T19:04:23.461Z,0.20
2022-11-24T19:07:08.301Z,0.20
2022-11-24T19:09:52.850Z,0.16
2022-11-24T19:12:37.743Z,0.18
2022-11-24T19:15:22.436Z,0.17
2022-11-24T19:18:07.181Z,0.17
2022-11-24T19:20:51.963Z,0.18
2022-11-24T19:23:36.808Z,0.19
2022-11-24T19:26:21.590Z,0.16
2022-11-24T19:29:07.853Z,0.17
2022-11-24T19:31:54.135Z,0.16
2022-11-24T19:34:39.063Z,0.15
2022-11-24T19:37:23.836Z,0.17
2022-11-24T19:40:09.295Z,0.17
2022-11-24T19:42:53.666Z,0.16
2022-11-24T19:45:43.451Z,0.17
2022-11-24T19:48:43.084Z,0.18
2022-11-24T19:51:33.415Z,0.17
2022-11-24T19:54:18.262Z,0.19
2022-11-24T19:57:02.890Z,0.17
2022-11-24T19:59:48.157Z,0.18
2022-11-24T20:02:32.869Z,0.15
2022-11-24T20:05:17.758Z,0.16
2022-11-24T20:08:02.809Z,0.15
2022-11-24T20:10:47.572Z,0.15
2022-11-24T20:13:36.093Z,0.17
2022-11-24T20:16:27.371Z,0.15
2022-11-24T20:19:12.834Z,0.16
2022-11-24T20:21:57.311Z,0.17
2022-11-24T20:24:41.888Z,0.16
2022-11-24T20:27:26.636Z,0.16
2022-11-24T20:30:11.400Z,0.16
2022-11-24T20:32:56.469Z,0.15
2022-11-24T20:35:41.196Z,0.16
2022-11-24T20:38:28.002Z,0.15
2022-11-24T20:41:34.635Z,0.15
2022-11-24T20:44:21.421Z,0.16
2022-11-24T20:47:06.464Z,0.15
2022-11-24T20:49:51.308Z,0.18
2022-11-24T20:52:36.117Z,0.17
2022-11-24T20:55:21.106Z,0.15
2022-11-24T20:58:05.737Z,0.14
2022-11-24T21:00:51.631Z,0.13
2022-11-24T21:03:42.587Z,0.13
2022-11-24T21:06:29.232Z,0.10
2022-11-24T21:09:14.685Z,0.12
2022-11-24T21:11:59.831Z,0.12
2022-11-24T21:14:44.173Z,0.14
2022-11-24T21:17:31.603Z,0.11
2022-11-24T21:20:16.343Z,0.11
2022-11-24T21:23:02.455Z,0.12
2022-11-24T21:25:46.894Z,0.12
2022-11-24T21:28:32.030Z,0.12
2022-11-24T21:31:19.332Z,0.14
2022-11-24T21:34:05.110Z,0.14
2022-11-24T21:36:50.343Z,0.13
2022-11-24T22:29:36.647Z,0.15
2022-11-24T22:32:21.290Z,0.12
2022-11-24T22:35:06.614Z,0.09
2022-11-24T22:37:51.223Z,0.13
2022-11-24T22:40:35.876Z,0.09
2022-11-24T22:43:23.094Z,0.09
2022-11-24T22:46:19.376Z,0.09
2022-11-24T22:49:04.058Z,0.08
2022-11-24T22:51:48.568Z,0.07
2022-11-24T22:54:33.465Z,0.07
2022-11-24T22:57:18.630Z,0.07
2022-11-24T23:00:04.114Z,0.07
2022-11-24T23:02:48.751Z,0.07
2022-11-24T23:05:33.371Z,0.08
2022-11-24T23:08:18.134Z,0.07
2022-11-24T23:11:05.865Z,0.05
2022-11-24T23:13:55.330Z,0.04
2022-11-24T23:16:40.583Z,0.04
2022-11-24T23:19:25.493Z,0.02
2022-11-24T23:22:10.174Z,0.04
2022-11-24T23:24:55.347Z,0.03
2022-11-24T23:27:39.856Z,0.04
2022-11-24T23:30:24.629Z,0.05
2022-11-24T23:33:09.519Z,0.03
2022-11-24T23:35:53.883Z,-0.02
2022-11-24T23:38:39.136Z,-0.04
2022-11-24T23:41:25.016Z,-0.02
2022-11-24T23:44:09.580Z,-0.03
2022-11-24T23:46:54.116Z,-0.06
2022-11-24T23:49:38.893Z,-0.04
2022-11-24T23:52:23.500Z,-0.02
2022-11-24T23:55:08.557Z,-0.01
2022-11-24T23:57:53.493Z,-0.03
